createdAt,value
2017-12-01T00:00:52.779Z,982.99
2017-12-01T00:01:52.766Z,982.99
2017-12-01T00:02:52.765Z,983.00
2017-12-01T00:03:52.754Z,983.04
2017-12-01T00:04:52.749Z,983.03
2017-12-01T00:05:52.748Z,983.06
2017-12-01T00:06:52.735Z,983.07
2017-12-01T00:07:52.733Z,983.07
2017-12-01T00:08:52.727Z,983.08
2017-12-01T00:09:52.711Z,983.09
2017-12-01T00:10:52.707Z,983.12
2017-12-01T00:11:52.704Z,983.15
2017-12-01T00:12:52.717Z,983.13
2017-12-01T00:13:52.709Z,983.17
2017-12-01T00:14:52.680Z,983.12
2017-12-01T00:15:52.677Z,983.11
2017-12-01T00:16:52.672Z,983.11
2017-12-01T00:17:52.668Z,983.16
2017-12-01T00:18:52.662Z,983.11
2017-12-01T00:19:52.649Z,983.09
2017-12-01T00:20:52.648Z,983.08
2017-12-01T00:21:52.647Z,983.10
2017-12-01T00:22:52.642Z,983.07
2017-12-01T00:23:52.635Z,983.08
2017-12-01T00:24:52.623Z,983.09
2017-12-01T00:25:52.615Z,983.11
2017-12-01T00:26:52.615Z,983.13
2017-12-01T00:27:52.607Z,983.14
2017-12-01T00:28:52.594Z,983.10
2017-12-01T00:29:52.588Z,983.14
2017-12-01T00:30:52.597Z,983.15
2017-12-01T00:31:52.575Z,983.17
2017-12-01T00:32:52.574Z,983.16
2017-12-01T00:33:52.565Z,983.14
2017-12-01T00:34:52.559Z,983.16
2017-12-01T00:35:52.553Z,983.17
2017-12-01T00:36:52.540Z,983.11
2017-12-01T00:37:52.539Z,983.11
2017-12-01T00:38:52.541Z,983.14
2017-12-01T00:39:52.528Z,983.12
2017-12-01T00:40:52.526Z,983.10
2017-12-01T00:41:52.515Z,983.13
2017-12-01T00:42:52.511Z,983.11
2017-12-01T00:43:52.493Z,983.12
2017-12-01T00:44:52.497Z,983.08
2017-12-01T00:45:52.491Z,983.09
2017-12-01T00:46:52.510Z,983.15
2017-12-01T00:47:52.477Z,983.10
2017-12-01T00:48:52.474Z,983.14
2017-12-01T00:49:52.469Z,983.10
2017-12-01T00:50:52.458Z,983.15
2017-12-01T00:51:52.451Z,983.11
2017-12-01T00:52:52.448Z,983.13
2017-12-01T00:53:52.440Z,983.09
2017-12-01T00:54:52.437Z,983.09
2017-12-01T00:55:52.428Z,983.11
2017-12-01T00:56:52.425Z,983.13
2017-12-01T00:57:52.415Z,983.14
2017-12-01T00:58:52.408Z,983.18
2017-12-01T00:59:52.403Z,983.20
2017-12-01T01:00:52.395Z,983.23
2017-12-01T01:01:52.392Z,983.19
2017-12-01T01:02:52.383Z,983.21
2017-12-01T01:03:52.377Z,983.22
2017-12-01T01:04:52.370Z,983.22
2017-12-01T01:05:52.365Z,983.25
2017-12-01T01:06:52.360Z,983.21
2017-12-01T01:07:52.350Z,983.21
2017-12-01T01:08:52.346Z,983.23
2017-12-01T01:09:52.350Z,983.25
2017-12-01T01:10:52.333Z,983.25
2017-12-01T01:11:52.334Z,983.27
2017-12-01T01:12:52.317Z,983.25
2017-12-01T01:13:52.309Z,983.30
2017-12-01T01:14:52.308Z,983.26
2017-12-01T01:15:52.311Z,983.33
2017-12-01T01:16:52.296Z,983.28
2017-12-01T01:17:52.303Z,983.29
2017-12-01T01:18:52.281Z,983.29
2017-12-01T01:19:52.278Z,983.31
2017-12-01T01:20:52.272Z,983.30
2017-12-01T01:21:52.266Z,983.35
2017-12-01T01:22:52.259Z,983.35
2017-12-01T01:23:52.252Z,983.32
2017-12-01T01:24:52.247Z,983.33
2017-12-01T01:25:52.244Z,983.36
2017-12-01T01:26:52.237Z,983.33
2017-12-01T01:27:52.228Z,983.38
2017-12-01T01:28:52.217Z,983.36
2017-12-01T01:29:52.223Z,983.37
2017-12-01T01:30:52.214Z,983.36
2017-12-01T01:31:52.203Z,983.37
2017-12-01T01:32:52.198Z,983.40
2017-12-01T01:33:52.186Z,983.42
2017-12-01T01:34:52.182Z,983.46
2017-12-01T01:35:52.180Z,983.43
2017-12-01T01:36:52.174Z,983.47
2017-12-01T01:37:52.165Z,983.48
2017-12-01T01:38:52.160Z,983.45
2017-12-01T01:39:52.167Z,983.49
2017-12-01T01:40:52.149Z,983.52
2017-12-01T01:41:52.154Z,983.54
2017-12-01T01:42:52.133Z,983.59
2017-12-01T01:43:52.130Z,983.59
2017-12-01T01:44:52.128Z,983.61
2017-12-01T01:45:52.117Z,983.61
2017-12-01T01:46:52.113Z,983.61
2017-12-01T01:47:52.096Z,983.59
2017-12-01T01:48:52.100Z,983.64
2017-12-01T01:49:52.090Z,983.68
2017-12-01T01:50:52.085Z,983.68
2017-12-01T01:51:52.078Z,983.66
2017-12-01T01:52:52.078Z,983.67
2017-12-01T01:53:52.067Z,983.63
2017-12-01T01:54:52.062Z,983.66
2017-12-01T01:55:52.049Z,983.66
2017-12-01T01:56:52.047Z,983.68
2017-12-01T01:57:52.049Z,983.68
2017-12-01T01:58:52.033Z,983.69
2017-12-01T01:59:52.344Z,983.70
2017-12-01T02:00:52.035Z,983.67
2017-12-01T02:01:52.018Z,983.68
2017-12-01T02:02:52.018Z,983.70
2017-12-01T02:03:52.020Z,983.69
2017-12-01T02:04:51.993Z,983.71
2017-12-01T02:05:51.990Z,983.67
2017-12-01T02:06:51.994Z,983.70
2017-12-01T02:07:51.991Z,983.73
2017-12-01T02:08:51.993Z,983.69
2017-12-01T02:09:51.967Z,983.76
2017-12-01T02:10:51.959Z,983.73
2017-12-01T02:11:51.955Z,983.72
2017-12-01T02:12:51.946Z,983.72
2017-12-01T02:13:51.942Z,983.72
2017-12-01T02:14:51.941Z,983.74
2017-12-01T02:15:52.379Z,983.77
2017-12-01T02:16:51.927Z,983.75
2017-12-01T02:17:51.928Z,983.78
2017-12-01T02:18:51.905Z,983.73
2017-12-01T02:19:51.913Z,983.72
2017-12-01T02:20:51.900Z,983.76
2017-12-01T02:21:51.891Z,983.72
2017-12-01T02:22:51.887Z,983.72
2017-12-01T02:23:51.871Z,983.69
2017-12-01T02:24:51.877Z,983.73
2017-12-01T02:25:51.871Z,983.72
2017-12-01T02:26:51.869Z,983.74
2017-12-01T02:27:51.855Z,983.75
2017-12-01T02:28:51.852Z,983.77
2017-12-01T02:29:51.843Z,983.77
2017-12-01T02:30:51.836Z,983.78
2017-12-01T02:31:51.832Z,983.78
2017-12-01T02:32:51.830Z,983.78
2017-12-01T02:33:51.819Z,983.81
2017-12-01T02:34:51.808Z,983.82
2017-12-01T02:35:51.808Z,983.83
2017-12-01T02:36:51.813Z,983.83
2017-12-01T02:37:51.805Z,983.82
2017-12-01T02:38:51.796Z,983.81
2017-12-01T02:39:51.797Z,983.87
2017-12-01T02:40:51.774Z,983.88
2017-12-01T02:41:51.771Z,983.88
2017-12-01T02:42:51.809Z,983.89
2017-12-01T02:43:51.757Z,983.90
2017-12-01T02:44:51.750Z,983.93
2017-12-01T02:45:51.744Z,983.93
2017-12-01T02:46:51.757Z,983.92
2017-12-01T02:47:51.734Z,983.95
2017-12-01T02:48:51.727Z,983.95
2017-12-01T02:49:51.726Z,983.94
2017-12-01T02:50:51.715Z,983.92
2017-12-01T02:51:51.727Z,983.97
2017-12-01T02:52:51.708Z,983.98
2017-12-01T02:53:51.706Z,983.99
2017-12-01T02:54:51.687Z,983.98
2017-12-01T02:55:51.683Z,983.94
2017-12-01T02:56:51.667Z,983.96
2017-12-01T02:57:51.666Z,983.96
2017-12-01T02:58:51.669Z,984.01
2017-12-01T02:59:51.657Z,984.02
2017-12-01T03:00:51.651Z,984.00
2017-12-01T03:01:52.112Z,984.03
2017-12-01T03:02:51.638Z,984.03
2017-12-01T03:03:51.636Z,984.04
2017-12-01T03:04:51.637Z,984.05
2017-12-01T03:05:51.617Z,984.05
2017-12-01T03:06:51.614Z,984.07
2017-12-01T03:07:51.643Z,984.06
2017-12-01T03:08:51.602Z,984.08
2017-12-01T03:09:51.610Z,984.05
2017-12-01T03:10:51.589Z,984.07
2017-12-01T03:11:51.583Z,984.06
2017-12-01T03:12:51.569Z,984.08
2017-12-01T03:13:51.572Z,984.11
2017-12-01T03:14:51.576Z,984.14
2017-12-01T03:15:51.556Z,984.13
2017-12-01T03:16:51.552Z,984.17
2017-12-01T03:17:51.560Z,984.18
2017-12-01T03:18:51.559Z,984.18
2017-12-01T03:19:51.532Z,984.18
2017-12-01T03:20:51.519Z,984.17
2017-12-01T03:21:51.518Z,984.20
2017-12-01T03:22:51.522Z,984.20
2017-12-01T03:23:51.501Z,984.21
2017-12-01T03:24:51.501Z,984.16
2017-12-01T03:25:51.496Z,984.21
2017-12-01T03:26:51.488Z,984.19
2017-12-01T03:27:51.506Z,984.21
2017-12-01T03:28:51.511Z,984.22
2017-12-01T03:29:51.525Z,984.26
2017-12-01T03:30:51.477Z,984.31
2017-12-01T03:31:51.461Z,984.30
2017-12-01T03:32:51.457Z,984.29
2017-12-01T03:33:51.438Z,984.33
2017-12-01T03:34:51.434Z,984.34
2017-12-01T03:35:51.433Z,984.33
2017-12-01T03:36:51.446Z,984.35
2017-12-01T03:37:51.431Z,984.36
2017-12-01T03:38:51.429Z,984.36
2017-12-01T03:39:51.412Z,984.42
2017-12-01T03:40:51.401Z,984.34
2017-12-01T03:41:51.396Z,984.39
2017-12-01T03:42:51.389Z,984.36
2017-12-01T03:43:51.388Z,984.35
2017-12-01T03:44:51.377Z,984.37
2017-12-01T03:45:51.371Z,984.38
2017-12-01T03:46:51.363Z,984.38
2017-12-01T03:47:51.362Z,984.41
2017-12-01T03:48:51.354Z,984.42
2017-12-01T03:49:51.347Z,984.40
2017-12-01T03:50:51.341Z,984.41
2017-12-01T03:51:51.332Z,984.47
2017-12-01T03:52:51.326Z,984.47
2017-12-01T03:53:51.325Z,984.52
2017-12-01T03:54:51.315Z,984.53
2017-12-01T03:55:51.307Z,984.54
2017-12-01T03:56:51.303Z,984.57
2017-12-01T03:57:51.292Z,984.54
2017-12-01T03:58:51.293Z,984.55
2017-12-01T03:59:51.280Z,984.53
2017-12-01T04:00:51.277Z,984.54
2017-12-01T04:01:51.278Z,984.57
2017-12-01T04:02:51.271Z,984.59
2017-12-01T04:03:51.274Z,984.62
2017-12-01T04:04:51.246Z,984.61
2017-12-01T04:05:51.248Z,984.63
2017-12-01T04:06:51.246Z,984.64
2017-12-01T04:07:51.234Z,984.68
2017-12-01T04:08:51.232Z,984.68
2017-12-01T04:09:51.228Z,984.72
2017-12-01T04:10:51.215Z,984.74
2017-12-01T04:11:51.211Z,984.74
2017-12-01T04:12:51.203Z,984.72
2017-12-01T04:13:51.191Z,984.74
2017-12-01T04:14:51.190Z,984.77
2017-12-01T04:15:51.184Z,984.76
2017-12-01T04:16:51.180Z,984.76
2017-12-01T04:17:51.195Z,984.81
2017-12-01T04:18:51.168Z,984.78
2017-12-01T04:19:51.161Z,984.77
2017-12-01T04:20:51.158Z,984.76
2017-12-01T04:21:51.149Z,984.76
2017-12-01T04:22:51.141Z,984.79
2017-12-01T04:23:51.137Z,984.80
2017-12-01T04:24:51.135Z,984.85
2017-12-01T04:25:51.128Z,984.80
2017-12-01T04:26:51.128Z,984.80
2017-12-01T04:27:51.111Z,984.76
2017-12-01T04:28:51.105Z,984.79
2017-12-01T04:29:51.098Z,984.79
2017-12-01T04:30:51.093Z,984.79
2017-12-01T04:31:51.083Z,984.83
2017-12-01T04:32:51.081Z,984.80
2017-12-01T04:33:51.076Z,984.76
2017-12-01T04:34:51.071Z,984.81
2017-12-01T04:35:51.064Z,984.82
2017-12-01T04:36:51.050Z,984.81
2017-12-01T04:37:51.044Z,984.85
2017-12-01T04:38:51.054Z,984.81
2017-12-01T04:39:51.048Z,984.84
2017-12-01T04:40:51.031Z,984.84
2017-12-01T04:41:51.043Z,984.83
2017-12-01T04:42:51.019Z,984.82
2017-12-01T04:43:51.014Z,984.83
2017-12-01T04:44:51.009Z,984.84
2017-12-01T04:45:51.002Z,984.87
2017-12-01T04:46:51.007Z,984.88
2017-12-01T04:47:51.000Z,984.88
2017-12-01T04:48:50.985Z,984.90
2017-12-01T04:49:50.981Z,984.90
2017-12-01T04:50:51.000Z,984.92
2017-12-01T04:51:50.970Z,984.91
2017-12-01T04:52:50.952Z,984.96
2017-12-01T04:53:50.954Z,984.97
2017-12-01T04:54:50.947Z,984.99
2017-12-01T04:55:50.943Z,985.02
2017-12-01T04:56:50.933Z,985.05
2017-12-01T04:57:50.933Z,985.05
2017-12-01T04:58:50.921Z,985.02
2017-12-01T04:59:50.914Z,985.08
2017-12-01T05:00:50.912Z,985.06
2017-12-01T05:01:50.901Z,985.15
2017-12-01T05:02:50.894Z,985.14
2017-12-01T05:03:50.887Z,985.20
2017-12-01T05:04:50.881Z,985.14
2017-12-01T05:05:50.873Z,985.20
2017-12-01T05:06:50.866Z,985.19
2017-12-01T05:07:50.859Z,985.22
2017-12-01T05:08:50.854Z,985.22
2017-12-01T05:09:50.844Z,985.22
2017-12-01T05:10:50.836Z,985.29
2017-12-01T05:11:50.834Z,985.28
2017-12-01T05:12:50.823Z,985.30
2017-12-01T05:13:50.818Z,985.27
2017-12-01T05:14:50.810Z,985.24
2017-12-01T05:15:50.811Z,985.30
2017-12-01T05:16:50.795Z,985.31
2017-12-01T05:17:50.789Z,985.37
2017-12-01T05:18:50.791Z,985.35
2017-12-01T05:19:50.776Z,985.38
2017-12-01T05:20:50.767Z,985.37
2017-12-01T05:21:50.759Z,985.40
2017-12-01T05:22:50.748Z,985.42
2017-12-01T05:23:50.747Z,985.40
2017-12-01T05:24:50.738Z,985.43
2017-12-01T05:25:50.729Z,985.44
2017-12-01T05:26:50.720Z,985.45
2017-12-01T05:27:50.716Z,985.47
2017-12-01T05:28:50.709Z,985.53
2017-12-01T05:29:50.705Z,985.48
2017-12-01T05:30:50.692Z,985.53
2017-12-01T05:31:50.686Z,985.53
2017-12-01T05:32:50.678Z,985.52
2017-12-01T05:33:50.669Z,985.56
2017-12-01T05:34:50.665Z,985.56
2017-12-01T05:35:50.655Z,985.56
2017-12-01T05:36:50.652Z,985.55
2017-12-01T05:37:50.642Z,985.55
2017-12-01T05:38:50.637Z,985.59
2017-12-01T05:39:50.626Z,985.61
2017-12-01T05:40:50.621Z,985.67
2017-12-01T05:41:50.632Z,985.68
2017-12-01T05:42:50.607Z,985.70
2017-12-01T05:43:50.597Z,985.77
2017-12-01T05:44:50.591Z,985.79
2017-12-01T05:45:50.585Z,985.81
2017-12-01T05:46:50.574Z,985.82
2017-12-01T05:47:50.576Z,985.82
2017-12-01T05:48:50.560Z,985.86
2017-12-01T05:49:50.556Z,985.86
2017-12-01T05:50:50.546Z,985.84
2017-12-01T05:51:50.541Z,985.91
2017-12-01T05:52:50.531Z,985.89
2017-12-01T05:53:50.523Z,985.86
2017-12-01T05:54:50.539Z,985.84
2017-12-01T05:55:50.509Z,985.87
2017-12-01T05:56:50.502Z,985.86
2017-12-01T05:57:50.524Z,985.85
2017-12-01T05:58:50.491Z,985.89
2017-12-01T05:59:50.477Z,985.90
2017-12-01T06:00:50.474Z,985.87
2017-12-01T06:01:50.473Z,985.90
2017-12-01T06:02:50.456Z,985.94
2017-12-01T06:03:50.482Z,985.96
2017-12-01T06:04:50.442Z,986.04
2017-12-01T06:05:50.439Z,986.02
2017-12-01T06:06:50.428Z,986.05
2017-12-01T06:07:50.426Z,986.05
2017-12-01T06:08:50.414Z,986.08
2017-12-01T06:09:50.408Z,986.09
2017-12-01T06:10:50.400Z,986.11
2017-12-01T06:11:50.385Z,986.14
2017-12-01T06:12:50.382Z,986.16
2017-12-01T06:13:50.374Z,986.17
2017-12-01T06:14:50.386Z,986.24
2017-12-01T06:15:50.360Z,986.21
2017-12-01T06:16:50.353Z,986.23
2017-12-01T06:17:50.345Z,986.24
2017-12-01T06:18:50.336Z,986.30
2017-12-01T06:19:50.329Z,986.29
2017-12-01T06:20:50.478Z,986.28
2017-12-01T06:21:50.342Z,986.34
2017-12-01T06:22:50.308Z,986.31
2017-12-01T06:23:50.302Z,986.33
2017-12-01T06:24:50.292Z,986.35
2017-12-01T06:25:50.281Z,986.31
2017-12-01T06:26:50.275Z,986.35
2017-12-01T06:27:50.269Z,986.39
2017-12-01T06:28:50.268Z,986.37
2017-12-01T06:29:50.254Z,986.43
2017-12-01T06:30:50.248Z,986.38
2017-12-01T06:31:50.240Z,986.43
2017-12-01T06:32:50.232Z,986.45
2017-12-01T06:33:50.224Z,986.46
2017-12-01T06:34:50.218Z,986.43
2017-12-01T06:35:50.212Z,986.46
2017-12-01T06:36:50.206Z,986.46
2017-12-01T06:37:50.194Z,986.49
2017-12-01T06:38:50.185Z,986.50
2017-12-01T06:39:50.179Z,986.52
2017-12-01T06:40:50.170Z,986.54
2017-12-01T06:41:50.169Z,986.58
2017-12-01T06:42:50.159Z,986.57
2017-12-01T06:43:50.149Z,986.57
2017-12-01T06:44:50.145Z,986.57
2017-12-01T06:45:50.138Z,986.60
2017-12-01T06:46:50.128Z,986.61
2017-12-01T06:47:50.122Z,986.63
2017-12-01T06:48:50.160Z,986.64
2017-12-01T06:49:50.105Z,986.66
2017-12-01T06:50:50.096Z,986.68
2017-12-01T06:51:50.934Z,986.71
2017-12-01T06:52:50.080Z,986.74
2017-12-01T06:53:50.079Z,986.76
2017-12-01T06:54:50.066Z,986.79
2017-12-01T06:55:50.075Z,986.77
2017-12-01T06:56:50.046Z,986.83
2017-12-01T06:57:50.044Z,986.83
2017-12-01T06:58:50.034Z,986.84
2017-12-01T06:59:50.040Z,986.85
2017-12-01T07:00:50.026Z,986.89
2017-12-01T07:01:50.015Z,986.89
2017-12-01T07:02:50.009Z,986.94
2017-12-01T07:03:49.999Z,986.93
2017-12-01T07:04:49.990Z,986.96
2017-12-01T07:05:49.982Z,987.02
2017-12-01T07:06:49.975Z,987.00
2017-12-01T07:07:50.012Z,987.03
2017-12-01T07:08:49.955Z,987.02
2017-12-01T07:09:49.952Z,987.03
2017-12-01T07:10:49.946Z,987.08
2017-12-01T07:11:49.939Z,987.10
2017-12-01T07:12:49.931Z,987.11
2017-12-01T07:13:49.928Z,987.17
2017-12-01T07:14:49.918Z,987.16
2017-12-01T07:15:49.908Z,987.19
2017-12-01T07:16:49.896Z,987.20
2017-12-01T07:17:49.896Z,987.20
2017-12-01T07:18:49.889Z,987.22
2017-12-01T07:19:49.879Z,987.20
2017-12-01T07:20:49.870Z,987.19
2017-12-01T07:21:49.863Z,987.20
2017-12-01T07:22:49.855Z,987.25
2017-12-01T07:23:49.847Z,987.25
2017-12-01T07:24:49.842Z,987.26
2017-12-01T07:25:49.832Z,987.27
2017-12-01T07:26:49.825Z,987.31
2017-12-01T07:27:49.839Z,987.30
2017-12-01T07:28:49.812Z,987.31
2017-12-01T07:29:49.808Z,987.34
2017-12-01T07:30:49.795Z,987.32
2017-12-01T07:31:49.787Z,987.33
2017-12-01T07:32:49.775Z,987.36
2017-12-01T07:33:49.772Z,987.34
2017-12-01T07:34:49.764Z,987.37
2017-12-01T07:35:49.762Z,987.39
2017-12-01T07:36:49.754Z,987.42
2017-12-01T07:37:50.578Z,987.43
2017-12-01T07:38:49.735Z,987.43
2017-12-01T07:39:49.727Z,987.51
2017-12-01T07:40:49.719Z,987.45
2017-12-01T07:41:49.711Z,987.50
2017-12-01T07:42:49.705Z,987.49
2017-12-01T07:43:49.701Z,987.53
2017-12-01T07:44:49.691Z,987.56
2017-12-01T07:45:49.678Z,987.60
2017-12-01T07:46:49.671Z,987.61
2017-12-01T07:47:49.664Z,987.62
2017-12-01T07:48:49.663Z,987.63
2017-12-01T07:49:49.651Z,987.65
2017-12-01T07:50:49.644Z,987.67
2017-12-01T07:51:49.636Z,987.72
2017-12-01T07:52:49.630Z,987.66
2017-12-01T07:53:51.288Z,987.70
2017-12-01T07:54:49.611Z,987.69
2017-12-01T07:55:49.606Z,987.66
2017-12-01T07:56:49.603Z,987.66
2017-12-01T07:57:49.592Z,987.68
2017-12-01T07:58:49.582Z,987.66
2017-12-01T07:59:49.576Z,987.66
2017-12-01T08:00:49.571Z,987.65
2017-12-01T08:01:49.568Z,987.66
2017-12-01T08:02:49.553Z,987.71
2017-12-01T08:03:49.548Z,987.71
2017-12-01T08:04:49.538Z,987.71
2017-12-01T08:05:49.533Z,987.71
2017-12-01T08:06:49.528Z,987.73
2017-12-01T08:07:49.514Z,987.75
2017-12-01T08:08:49.527Z,987.74
2017-12-01T08:09:49.499Z,987.80
2017-12-01T08:10:49.492Z,987.82
2017-12-01T08:11:49.483Z,987.88
2017-12-01T08:12:49.475Z,987.90
2017-12-01T08:13:49.474Z,987.89
2017-12-01T08:14:49.458Z,987.92
2017-12-01T08:15:49.455Z,987.92
2017-12-01T08:16:49.448Z,987.92
2017-12-01T08:17:49.439Z,987.92
2017-12-01T08:18:49.431Z,987.93
2017-12-01T08:19:49.426Z,987.94
2017-12-01T08:20:49.415Z,987.93
2017-12-01T08:21:49.413Z,987.93
2017-12-01T08:22:49.402Z,987.96
2017-12-01T08:23:49.392Z,987.92
2017-12-01T08:24:49.387Z,987.97
2017-12-01T08:25:49.380Z,988.00
2017-12-01T08:26:49.376Z,987.94
2017-12-01T08:27:49.365Z,988.00
2017-12-01T08:28:49.364Z,988.00
2017-12-01T08:29:49.347Z,988.03
2017-12-01T08:30:49.344Z,988.03
2017-12-01T08:31:49.334Z,988.09
2017-12-01T08:32:49.339Z,988.11
2017-12-01T08:33:49.320Z,988.10
2017-12-01T08:34:49.314Z,988.12
2017-12-01T08:35:49.305Z,988.10
2017-12-01T08:36:49.295Z,988.13
2017-12-01T08:37:49.297Z,988.16
2017-12-01T08:38:49.289Z,988.18
2017-12-01T08:39:49.275Z,988.18
2017-12-01T08:40:49.268Z,988.18
2017-12-01T08:41:49.260Z,988.22
2017-12-01T08:42:49.245Z,988.23
2017-12-01T08:43:49.242Z,988.22
2017-12-01T08:44:49.237Z,988.22
2017-12-01T08:45:49.249Z,988.24
2017-12-01T08:46:49.223Z,988.27
2017-12-01T08:47:49.215Z,988.25
2017-12-01T08:48:49.207Z,988.23
2017-12-01T08:49:49.199Z,988.24
2017-12-01T08:50:49.195Z,988.26
2017-12-01T08:51:49.187Z,988.26
2017-12-01T08:52:49.175Z,988.24
2017-12-01T08:53:49.167Z,988.28
2017-12-01T08:54:49.160Z,988.32
2017-12-01T08:55:49.152Z,988.33
2017-12-01T08:56:49.145Z,988.36
2017-12-01T08:57:49.137Z,988.34
2017-12-01T08:58:49.130Z,988.38
2017-12-01T08:59:49.123Z,988.37
2017-12-01T09:00:49.116Z,988.36
2017-12-01T09:01:49.109Z,988.36
2017-12-01T09:02:49.104Z,988.37
2017-12-01T09:03:49.091Z,988.36
2017-12-01T09:04:49.087Z,988.38
2017-12-01T09:05:49.078Z,988.36
2017-12-01T09:06:49.071Z,988.42
2017-12-01T09:07:49.066Z,988.46
2017-12-01T09:08:49.061Z,988.46
2017-12-01T09:09:49.867Z,988.48
2017-12-01T09:10:49.039Z,988.53
2017-12-01T09:11:49.092Z,988.56
2017-12-01T09:12:49.027Z,988.55
2017-12-01T09:13:49.025Z,988.57
2017-12-01T09:14:49.012Z,988.57
2017-12-01T09:15:49.005Z,988.60
2017-12-01T09:16:48.996Z,988.61
2017-12-01T09:17:48.992Z,988.66
2017-12-01T09:18:48.980Z,988.67
2017-12-01T09:19:48.981Z,988.70
2017-12-01T09:20:48.970Z,988.71
2017-12-01T09:21:48.958Z,988.75
2017-12-01T09:22:48.950Z,988.77
2017-12-01T09:23:48.943Z,988.79
2017-12-01T09:24:48.936Z,988.80
2017-12-01T09:25:50.360Z,988.84
2017-12-01T09:26:48.922Z,988.79
2017-12-01T09:27:48.913Z,988.79
2017-12-01T09:28:48.912Z,988.83
2017-12-01T09:29:48.904Z,988.84
2017-12-01T09:30:48.892Z,988.84
2017-12-01T09:31:48.884Z,988.86
2017-12-01T09:32:48.875Z,988.90
2017-12-01T09:33:48.872Z,988.85
2017-12-01T09:34:48.863Z,988.87
2017-12-01T09:35:48.883Z,988.83
2017-12-01T09:36:48.846Z,988.87
2017-12-01T09:37:48.837Z,988.88
2017-12-01T09:38:48.831Z,988.86
2017-12-01T09:39:48.822Z,988.86
2017-12-01T09:40:48.816Z,988.87
2017-12-01T09:41:48.809Z,988.91
2017-12-01T09:42:48.800Z,988.92
2017-12-01T09:43:48.795Z,988.92
2017-12-01T09:44:48.788Z,988.94
2017-12-01T09:45:48.777Z,988.94
2017-12-01T09:46:48.768Z,988.92
2017-12-01T09:47:48.771Z,988.94
2017-12-01T09:48:48.763Z,988.98
2017-12-01T09:49:48.749Z,988.96
2017-12-01T09:50:48.741Z,989.01
2017-12-01T09:51:48.770Z,989.04
2017-12-01T09:52:48.727Z,989.03
2017-12-01T09:53:48.719Z,989.04
2017-12-01T09:54:48.714Z,989.06
2017-12-01T09:55:48.709Z,989.07
2017-12-01T09:56:48.700Z,989.08
2017-12-01T09:57:48.692Z,989.12
2017-12-01T09:58:48.682Z,989.09
2017-12-01T09:59:48.686Z,989.12
2017-12-01T10:00:48.670Z,989.10
2017-12-01T10:01:48.665Z,989.15
2017-12-01T10:02:48.654Z,989.16
2017-12-01T10:03:48.641Z,989.14
2017-12-01T10:04:48.641Z,989.15
2017-12-01T10:05:48.637Z,989.19
2017-12-01T10:06:48.634Z,989.17
2017-12-01T10:07:48.622Z,989.16
2017-12-01T10:08:48.614Z,989.19
2017-12-01T10:09:48.604Z,989.19
2017-12-01T10:10:48.599Z,989.20
2017-12-01T10:11:48.590Z,989.25
2017-12-01T10:12:48.579Z,989.24
2017-12-01T10:13:48.576Z,989.24
2017-12-01T10:14:48.574Z,989.29
2017-12-01T10:15:48.558Z,989.34
2017-12-01T10:16:48.591Z,989.33
2017-12-01T10:17:48.545Z,989.33
2017-12-01T10:18:48.536Z,989.37
2017-12-01T10:19:48.529Z,989.38
2017-12-01T10:20:48.522Z,989.44
2017-12-01T10:21:48.516Z,989.43
2017-12-01T10:22:48.507Z,989.45
2017-12-01T10:23:48.500Z,989.44
2017-12-01T10:24:48.499Z,989.46
2017-12-01T10:25:48.534Z,989.49
2017-12-01T10:26:48.486Z,989.51
2017-12-01T10:27:48.469Z,989.50
2017-12-01T10:28:48.465Z,989.56
2017-12-01T10:29:48.458Z,989.54
2017-12-01T10:30:48.450Z,989.56
2017-12-01T10:31:48.444Z,989.55
2017-12-01T10:32:48.438Z,989.57
2017-12-01T10:33:48.431Z,989.57
2017-12-01T10:34:48.419Z,989.56
2017-12-01T10:35:48.416Z,989.58
2017-12-01T10:36:48.401Z,989.55
2017-12-01T10:37:48.396Z,989.59
2017-12-01T10:38:48.389Z,989.58
2017-12-01T10:39:48.389Z,989.57
2017-12-01T10:40:48.387Z,989.59
2017-12-01T10:41:48.368Z,989.57
2017-12-01T10:42:48.359Z,989.59
2017-12-01T10:43:48.355Z,989.59
2017-12-01T10:44:48.348Z,989.60
2017-12-01T10:45:48.340Z,989.60
2017-12-01T10:46:48.331Z,989.61
2017-12-01T10:47:48.328Z,989.67
2017-12-01T10:48:48.316Z,989.65
2017-12-01T10:49:48.312Z,989.67
2017-12-01T10:50:48.298Z,989.69
2017-12-01T10:51:48.290Z,989.71
2017-12-01T10:52:48.289Z,989.69
2017-12-01T10:53:48.278Z,989.71
2017-12-01T10:54:48.271Z,989.75
2017-12-01T10:55:48.268Z,989.78
2017-12-01T10:56:48.256Z,989.81
2017-12-01T10:57:48.253Z,989.77
2017-12-01T10:58:48.244Z,989.78
2017-12-01T10:59:48.235Z,989.79
2017-12-01T11:00:48.229Z,989.77
2017-12-01T11:01:48.224Z,989.79
2017-12-01T11:02:48.204Z,989.81
2017-12-01T11:03:48.203Z,989.78
2017-12-01T11:04:48.196Z,989.77
2017-12-01T11:05:48.190Z,989.76
2017-12-01T11:06:48.182Z,989.78
2017-12-01T11:07:48.175Z,989.78
2017-12-01T11:08:48.167Z,989.74
2017-12-01T11:09:48.167Z,989.75
2017-12-01T11:10:48.154Z,989.81
2017-12-01T11:11:48.144Z,989.80
2017-12-01T11:12:48.138Z,989.77
2017-12-01T11:13:48.133Z,989.83
2017-12-01T11:14:48.124Z,989.84
2017-12-01T11:15:48.116Z,989.86
2017-12-01T11:16:48.104Z,989.88
2017-12-01T11:17:48.101Z,989.89
2017-12-01T11:18:48.099Z,989.93
2017-12-01T11:19:48.085Z,989.92
2017-12-01T11:20:48.079Z,989.91
2017-12-01T11:21:48.071Z,989.96
2017-12-01T11:22:48.064Z,989.91
2017-12-01T11:23:48.054Z,989.90
2017-12-01T11:24:48.048Z,989.94
2017-12-01T11:25:48.034Z,989.94
2017-12-01T11:26:48.033Z,989.94
2017-12-01T11:27:48.027Z,989.90
2017-12-01T11:28:48.018Z,989.93
2017-12-01T11:29:48.009Z,989.97
2017-12-01T11:30:48.002Z,989.94
2017-12-01T11:31:47.995Z,989.98
2017-12-01T11:32:47.988Z,989.95
2017-12-01T11:33:47.988Z,989.96
2017-12-01T11:34:47.974Z,989.95
2017-12-01T11:35:47.973Z,989.95
2017-12-01T11:36:47.958Z,989.96
2017-12-01T11:37:47.952Z,989.96
2017-12-01T11:38:47.946Z,989.97
2017-12-01T11:39:47.937Z,989.95
2017-12-01T11:40:47.927Z,989.98
2017-12-01T11:41:47.922Z,990.00
2017-12-01T11:42:47.911Z,989.99
2017-12-01T11:43:49.072Z,989.96
2017-12-01T11:44:47.899Z,990.00
2017-12-01T11:45:47.891Z,990.05
2017-12-01T11:46:47.883Z,990.01
2017-12-01T11:47:47.875Z,989.99
2017-12-01T11:48:47.874Z,990.02
2017-12-01T11:49:47.861Z,989.99
2017-12-01T11:50:47.854Z,990.00
2017-12-01T11:51:47.846Z,990.02
2017-12-01T11:52:47.838Z,990.00
2017-12-01T11:53:47.832Z,990.00
2017-12-01T11:54:47.827Z,990.02
2017-12-01T11:55:47.824Z,989.97
2017-12-01T11:56:47.851Z,990.00
2017-12-01T11:57:47.800Z,990.02
2017-12-01T11:58:47.926Z,989.99
2017-12-01T11:59:47.799Z,990.02
2017-12-01T12:00:47.778Z,990.04
2017-12-01T12:01:47.772Z,990.02
2017-12-01T12:02:47.763Z,990.04
2017-12-01T12:03:47.758Z,990.04
2017-12-01T12:04:47.751Z,990.04
2017-12-01T12:05:47.739Z,990.04
2017-12-01T12:06:47.732Z,990.05
2017-12-01T12:07:47.725Z,990.06
2017-12-01T12:08:47.718Z,990.05
2017-12-01T12:09:47.712Z,990.05
2017-12-01T12:10:47.702Z,990.07
2017-12-01T12:11:47.695Z,990.07
2017-12-01T12:12:47.689Z,990.09
2017-12-01T12:13:47.681Z,990.05
2017-12-01T12:14:47.677Z,990.06
2017-12-01T12:15:47.665Z,990.06
2017-12-01T12:16:47.694Z,990.10
2017-12-01T12:17:47.656Z,990.09
2017-12-01T12:18:47.643Z,990.09
2017-12-01T12:19:47.636Z,990.10
2017-12-01T12:20:47.629Z,990.12
2017-12-01T12:21:47.626Z,990.12
2017-12-01T12:22:47.615Z,990.13
2017-12-01T12:23:47.606Z,990.11
2017-12-01T12:24:47.600Z,990.10
2017-12-01T12:25:47.593Z,990.15
2017-12-01T12:26:47.584Z,990.17
2017-12-01T12:27:47.581Z,990.18
2017-12-01T12:28:47.570Z,990.25